Terminal Aerodrome Forecast
Issued by NWS

Home | Current Version | Previous Version | Graphics & Text | Print | Product List | Glossary On
Versions: 1 2 3 4 5 6 7 8 9 10 11 12 13
000
FTUS43 KICT 150535
TAFSLN
TAF
KSLN 150535Z 1506/1606 20012G19KT P6SM BKN150
     FM151500 25008KT P6SM BKN250
     FM151900 32011KT P6SM SCT200
     FM160300 36022KT P6SM BKN150=

USA.gov is the U.S. government's official web portal to all federal, state and local government web resources and services.